Big Bear Station Historical Data
Daily Summary for June 8, 2019 Units:  English    Metric   Both
Next Day »
Daily Weekly Monthly Yearly Custom
  High: Low: Average:
Temperature: 78.3 °F 43.2 °F 59.7 °F
Dew Point: 53.5 °F 34.5 °F 40.8 °F
Humidity: 84% 30% 52%
Wind Speed: 6.8mph 0mph 1.4mph
Wind Gust: -999mph - -
Wind- - West
Pressure: 23.61 in 23.45 in -
Precipitation: 0 in    
Historical Graphs
 
 
Tabular Data for June 8, 2019
Time Temperature Dew Point Pressure Wind Wind Speed Wind Gust Humidity Rainfall Rate (Hourly)
00:15 50.7 °F 34.7 °F 23.47 in South 2.2 mph -999 mph 54% 0.00 in
00:30 50 °F 34.5 °F 23.46 in Calm   -999 mph 55% 0.00 in
00:46 51.1 °F 35.5 °F 23.46 in Calm   -999 mph 55% 0.00 in
01:01 51.3 °F 35.7 °F 23.46 in SSW 2.2 mph -999 mph 55% 0.00 in
01:16 50.9 °F 34.8 °F 23.46 in Calm   -999 mph 54% 0.00 in
01:31 50.4 °F 37.5 °F 23.45 in Calm   -999 mph 61% 0.00 in
01:47 50 °F 37.9 °F 23.45 in Calm   -999 mph 63% 0.00 in
02:02 50.4 °F 37 °F 23.45 in Calm   -999 mph 60% 0.00 in
02:17 49.5 °F 36.6 °F 23.45 in Calm   -999 mph 61% 0.00 in
02:32 48.7 °F 35.9 °F 23.45 in Calm   -999 mph 61% 0.00 in
02:47 48.2 °F 35.8 °F 23.45 in Calm   -999 mph 62% 0.00 in
03:03 47.8 °F 35.8 °F 23.45 in Calm   -999 mph 63% 0.00 in
03:18 46.9 °F 36.1 °F 23.45 in Calm   -999 mph 66% 0.00 in
03:33 46.8 °F 35.3 °F 23.45 in Calm   -999 mph 64% 0.00 in
03:48 46.2 °F 34.7 °F 23.45 in Calm   -999 mph 64% 0.00 in
04:03 45.7 °F 35 °F 23.45 in Calm   -999 mph 66% 0.00 in
04:19 44.8 °F 36.7 °F 23.45 in Calm   -999 mph 73% 0.00 in
04:34 45.3 °F 36.1 °F 23.45 in Calm   -999 mph 70% 0.00 in
04:49 44.8 °F 35.6 °F 23.45 in Calm   -999 mph 70% 0.00 in
05:04 44.6 °F 36.1 °F 23.45 in Calm   -999 mph 72% 0.00 in
05:19 44.1 °F 36 °F 23.46 in Calm   -999 mph 73% 0.00 in
05:35 44.1 °F 36.7 °F 23.46 in Calm   -999 mph 75% 0.00 in
05:50 43.5 °F 36.8 °F 23.46 in Calm   -999 mph 77% 0.00 in
06:05 43.5 °F 36.8 °F 23.47 in Calm   -999 mph 77% 0.00 in
06:20 43.2 °F 37.1 °F 23.47 in Calm   -999 mph 79% 0.00 in
06:35 43.9 °F 37.5 °F 23.47 in Calm   -999 mph 78% 0.00 in
06:51 44.1 °F 38 °F 23.48 in Calm   -999 mph 79% 0.00 in
07:06 44.2 °F 39.1 °F 23.48 in Calm   -999 mph 82% 0.00 in
07:21 45.3 °F 39.5 °F 23.48 in Calm   -999 mph 80% 0.00 in
07:36 46.2 °F 41.6 °F 23.48 in Calm   -999 mph 84% 0.00 in
07:52 47.5 °F 42.6 °F 23.48 in Calm   -999 mph 83% 0.00 in
08:07 49.1 °F 40.8 °F 23.49 in Calm   -999 mph 73% 0.00 in
08:22 51.1 °F 39.7 °F 23.49 in Calm   -999 mph 65% 0.00 in
08:37 53.1 °F 37.4 °F 23.49 in Calm   -999 mph 55% 0.00 in
08:52 55.9 °F 34.9 °F 23.49 in Calm   -999 mph 45% 0.00 in
09:08 58.3 °F 35.9 °F 23.49 in Calm   -999 mph 43% 0.00 in
09:23 60.6 °F 40.3 °F 23.49 in WNW 3.2 mph -999 mph 47% 0.00 in
09:38 62.1 °F 38.1 °F 23.49 in NW 3.2 mph -999 mph 41% 0.00 in
09:53 64.2 °F 40 °F 23.49 in NW 1.1 mph -999 mph 41% 0.00 in
10:08 65.1 °F 41.4 °F 23.50 in SW 3.2 mph -999 mph 42% 0.00 in
10:24 64.8 °F 39.9 °F 23.50 in NNW 2.7 mph -999 mph 40% 0.00 in
10:39 65.1 °F 40.2 °F 23.50 in West 1.7 mph -999 mph 40% 0.00 in
10:54 65.3 °F 41 °F 23.51 in WNW 3.7 mph -999 mph 41% 0.00 in
11:09 65.7 °F 38.7 °F 23.51 in NNW 6.8 mph -999 mph 37% 0.00 in
11:25 66.6 °F 40.2 °F 23.51 in North 4.7 mph -999 mph 38% 0.00 in
11:40 67.6 °F 39 °F 23.52 in East 1.7 mph -999 mph 35% 0.00 in
11:55 70.5 °F 41.5 °F 23.52 in NW 5.8 mph -999 mph 35% 0.00 in
12:11 70.3 °F 40.6 °F 23.53 in NNW 4.2 mph -999 mph 34% 0.00 in
12:26 72.7 °F 43.5 °F 23.53 in NW 5.8 mph -999 mph 35% 0.00 in
12:41 71.6 °F 41 °F 23.53 in NNW 4.2 mph -999 mph 33% 0.00 in
12:57 72.9 °F 47.2 °F 23.53 in North 2.2 mph -999 mph 40% 0.00 in
13:12 73 °F 48.6 °F 23.53 in NW 4.7 mph -999 mph 42% 0.00 in
13:27 73 °F 47.3 °F 23.53 in WNW 3.2 mph -999 mph 40% 0.00 in
13:43 74.5 °F 47.9 °F 23.54 in NW 3.2 mph -999 mph 39% 0.00 in
13:58 74.5 °F 47.9 °F 23.54 in NNW 4.2 mph -999 mph 39% 0.00 in
14:14 74.5 °F 49.3 °F 23.54 in NNE 4.7 mph -999 mph 41% 0.00 in
14:29 75.4 °F 50.1 °F 23.54 in NW 4.7 mph -999 mph 41% 0.00 in
14:44 75 °F 49.7 °F 23.54 in WNW 4.7 mph -999 mph 41% 0.00 in
15:00 75 °F 51 °F 23.54 in NNW 2.2 mph -999 mph 43% 0.00 in
15:15 75 °F 50.4 °F 23.54 in NNE 2.2 mph -999 mph 42% 0.00 in
15:30 73.8 °F 49.9 °F 23.54 in NNW 3.7 mph -999 mph 43% 0.00 in
15:46 75 °F 51 °F 23.54 in NNW 4.2 mph -999 mph 43% 0.00 in
16:01 75 °F 50.4 °F 23.54 in NNE 3.2 mph -999 mph 42% 0.00 in
16:16 73.9 °F 50 °F 23.54 in NNE 2.2 mph -999 mph 43% 0.00 in
16:32 75.7 °F 51.6 °F 23.54 in WNW 4.7 mph -999 mph 43% 0.00 in
16:47 78.3 °F 52.7 °F 23.54 in NW 1.7 mph -999 mph 41% 0.00 in
17:02 77.9 °F 51 °F 23.54 in NW 3.7 mph -999 mph 39% 0.00 in
17:18 77.5 °F 52 °F 23.54 in North 2.2 mph -999 mph 41% 0.00 in
17:33 77.2 °F 49.6 °F 23.54 in Calm   -999 mph 38% 0.00 in
17:48 76.5 °F 49.7 °F 23.54 in NNW 3.7 mph -999 mph 39% 0.00 in
18:03 75.6 °F 52.2 °F 23.54 in Calm   -999 mph 44% 0.00 in
18:18 78.3 °F 49.2 °F 23.55 in NNW 1.7 mph -999 mph 36% 0.00 in
18:34 77.9 °F 48.1 °F 23.55 in NNW 2.7 mph -999 mph 35% 0.00 in
18:49 74.5 °F 53.5 °F 23.56 in Calm   -999 mph 48% 0.00 in
19:04 73 °F 39.7 °F 23.56 in North 2.7 mph -999 mph 30% 0.00 in
19:19 70 °F 39.6 °F 23.56 in Calm   -999 mph 33% 0.00 in
19:34 67.8 °F 39.9 °F 23.56 in Calm   -999 mph 36% 0.00 in
19:50 65.3 °F 37.7 °F 23.56 in Calm   -999 mph 36% 0.00 in
20:05 62.1 °F 38.1 °F 23.57 in Calm   -999 mph 41% 0.00 in
20:20 59.7 °F 37.2 °F 23.57 in Calm   -999 mph 43% 0.00 in
20:35 59 °F 36.5 °F 23.58 in Calm   -999 mph 43% 0.00 in
20:51 57.9 °F 37.2 °F 23.58 in Calm   -999 mph 46% 0.00 in
21:06 57 °F 37.5 °F 23.59 in Calm   -999 mph 48% 0.00 in
21:21 55.8 °F 36.4 °F 23.59 in Calm   -999 mph 48% 0.00 in
21:36 55 °F 35.1 °F 23.59 in Calm   -999 mph 47% 0.00 in
21:52 54.1 °F 35.9 °F 23.60 in Calm   -999 mph 50% 0.00 in
22:07 53.2 °F 35.5 °F 23.60 in Calm   -999 mph 51% 0.00 in
22:22 52.5 °F 36.3 °F 23.61 in Calm   -999 mph 54% 0.00 in
22:38 51.6 °F 35 °F 23.61 in Calm   -999 mph 53% 0.00 in
22:53 51.3 °F 35.7 °F 23.61 in Calm   -999 mph 55% 0.00 in
23:08 50.9 °F 38.3 °F 23.61 in Calm   -999 mph 62% 0.00 in
23:23 50.5 °F 38.4 °F 23.61 in Calm   -999 mph 63% 0.00 in
23:38 50 °F 37.9 °F 23.61 in Calm   -999 mph 63% 0.00 in
23:54 49.5 °F 38.2 °F 23.61 in Calm   -999 mph 65% 0.00 in
Big Bear CA Weather